Terminal Aerodrome Forecast
Issued by NWS Buffalo, NY

Home | Current Version | Previous Version | Text Only | Print | Product List | Glossary On
Versions: 1 2 3 4 5 6 7 8 9 10 11 12 13 14 15 16 17 18 19 20 21 22 23 24 25 26 27 28 29 30 31 32 33 34 35
000
FTUS41 KBUF 040552
TAFART
TAF
KART 040552Z 0406/0506 07004KT 2SM BR SKC
      TEMPO 0406/0408 4SM BR
     FM040800 06004KT 6SM BR SKC
     FM041300 05006KT P6SM SKC
     FM041600 04010KT P6SM FEW250
     FM050000 04004KT P6SM SKC=

USA.gov is the U.S. government's official web portal to all federal, state and local government web resources and services.